sensor_id;sensor_type;location;lat;lon;timestamp;temperature;humidity
15930;DHT22;8064;51.142;4.780;2022-09-21T00:01:12;11.00;99.90
15930;DHT22;8064;51.142;4.780;2022-09-21T00:03:39;10.90;99.90
15930;DHT22;8064;51.142;4.780;2022-09-21T00:06:13;10.90;99.90
15930;DHT22;8064;51.142;4.780;2022-09-21T00:08:40;10.90;99.90
15930;DHT22;8064;51.142;4.780;2022-09-21T00:11:06;10.80;99.90
15930;DHT22;8064;51.142;4.780;2022-09-21T00:13:33;10.80;99.90
15930;DHT22;8064;51.142;4.780;2022-09-21T00:16:04;10.80;99.90
15930;DHT22;8064;51.142;4.780;2022-09-21T00:18:31;10.70;99.90
15930;DHT22;8064;51.142;4.780;2022-09-21T00:20:57;10.70;99.90
15930;DHT22;8064;51.142;4.780;2022-09-21T00:23:23;10.70;99.90
15930;DHT22;8064;51.142;4.780;2022-09-21T00:25:49;10.60;99.90
15930;DHT22;8064;51.142;4.780;2022-09-21T00:28:14;10.60;99.90
15930;DHT22;8064;51.142;4.780;2022-09-21T00:30:41;10.60;99.90
15930;DHT22;8064;51.142;4.780;2022-09-21T00:33:06;10.60;99.90
15930;DHT22;8064;51.142;4.780;2022-09-21T00:35:32;10.60;99.90
15930;DHT22;8064;51.142;4.780;2022-09-21T00:38:01;10.50;99.90
15930;DHT22;8064;51.142;4.780;2022-09-21T00:40:27;10.50;99.90
15930;DHT22;8064;51.142;4.780;2022-09-21T00:42:53;10.50;99.90
15930;DHT22;8064;51.142;4.780;2022-09-21T00:45:19;10.50;99.90
15930;DHT22;8064;51.142;4.780;2022-09-21T00:47:50;10.40;99.90
15930;DHT22;8064;51.142;4.780;2022-09-21T00:50:19;10.40;99.90
15930;DHT22;8064;51.142;4.780;2022-09-21T00:52:51;10.40;99.90
15930;DHT22;8064;51.142;4.780;2022-09-21T00:55:40;10.30;99.90
15930;DHT22;8064;51.142;4.780;2022-09-21T00:58:13;10.30;99.90
15930;DHT22;8064;51.142;4.780;2022-09-21T01:00:41;10.30;99.90
15930;DHT22;8064;51.142;4.780;2022-09-21T01:03:08;10.30;99.90
15930;DHT22;8064;51.142;4.780;2022-09-21T01:05:35;10.30;99.90
15930;DHT22;8064;51.142;4.780;2022-09-21T01:08:01;10.20;99.90
15930;DHT22;8064;51.142;4.780;2022-09-21T01:10:37;10.20;99.90
15930;DHT22;8064;51.142;4.780;2022-09-21T01:13:33;10.20;99.90
15930;DHT22;8064;51.142;4.780;2022-09-21T01:16:15;10.20;99.90
15930;DHT22;8064;51.142;4.780;2022-09-21T01:22:04;10.20;99.90
15930;DHT22;8064;51.142;4.780;2022-09-21T01:30:02;10.10;99.90
15930;DHT22;8064;51.142;4.780;2022-09-21T01:35:12;10.10;99.90
15930;DHT22;8064;51.142;4.780;2022-09-21T01:37:45;10.10;99.90
15930;DHT22;8064;51.142;4.780;2022-09-21T01:40:27;10.10;99.90
15930;DHT22;8064;51.142;4.780;2022-09-21T01:42:55;10.10;99.90
15930;DHT22;8064;51.142;4.780;2022-09-21T01:45:28;10.00;99.90
15930;DHT22;8064;51.142;4.780;2022-09-21T01:47:56;10.10;99.90
15930;DHT22;8064;51.142;4.780;2022-09-21T01:50:25;10.00;99.90
15930;DHT22;8064;51.142;4.780;2022-09-21T01:52:59;10.00;99.90
15930;DHT22;8064;51.142;4.780;2022-09-21T01:55:43;10.00;99.90
15930;DHT22;8064;51.142;4.780;2022-09-21T01:58:15;10.00;99.90
15930;DHT22;8064;51.142;4.780;2022-09-21T02:00:46;10.00;99.90
15930;DHT22;8064;51.142;4.780;2022-09-21T02:03:29;10.00;99.90
15930;DHT22;8064;51.142;4.780;2022-09-21T02:05:58;10.00;99.90
15930;DHT22;8064;51.142;4.780;2022-09-21T02:08:25;9.90;99.90
15930;DHT22;8064;51.142;4.780;2022-09-21T02:10:52;9.90;99.90
15930;DHT22;8064;51.142;4.780;2022-09-21T02:13:21;9.90;99.90
15930;DHT22;8064;51.142;4.780;2022-09-21T02:24:45;9.80;99.90
15930;DHT22;8064;51.142;4.780;2022-09-21T02:27:31;9.80;99.90
15930;DHT22;8064;51.142;4.780;2022-09-21T02:38:22;9.70;99.90
15930;DHT22;8064;51.142;4.780;2022-09-21T02:43:31;9.60;99.90
15930;DHT22;8064;51.142;4.780;2022-09-21T02:46:02;9.60;99.90
15930;DHT22;8064;51.142;4.780;2022-09-21T02:48:46;9.60;99.90
15930;DHT22;8064;51.142;4.780;2022-09-21T02:51:16;9.60;99.90
15930;DHT22;8064;51.142;4.780;2022-09-21T02:53:44;9.60;99.90
15930;DHT22;8064;51.142;4.780;2022-09-21T02:56:13;9.60;99.90
15930;DHT22;8064;51.142;4.780;2022-09-21T02:58:48;9.60;99.90
15930;DHT22;8064;51.142;4.780;2022-09-21T03:01:15;9.60;99.90
15930;DHT22;8064;51.142;4.780;2022-09-21T03:03:42;9.60;99.90
15930;DHT22;8064;51.142;4.780;2022-09-21T03:06:08;9.60;99.90
15930;DHT22;8064;51.142;4.780;2022-09-21T03:08:33;9.60;99.90
15930;DHT22;8064;51.142;4.780;2022-09-21T03:10:59;9.50;99.90
15930;DHT22;8064;51.142;4.780;2022-09-21T03:13:25;9.50;99.90
15930;DHT22;8064;51.142;4.780;2022-09-21T03:16:00;9.50;99.90
15930;DHT22;8064;51.142;4.780;2022-09-21T03:18:26;9.50;99.90
15930;DHT22;8064;51.142;4.780;2022-09-21T03:20:52;9.50;99.90
15930;DHT22;8064;51.142;4.780;2022-09-21T03:23:18;9.50;99.90
15930;DHT22;8064;51.142;4.780;2022-09-21T03:25:44;9.40;99.90
15930;DHT22;8064;51.142;4.780;2022-09-21T03:28:11;9.40;99.90
15930;DHT22;8064;51.142;4.780;2022-09-21T03:30:38;9.40;99.90
15930;DHT22;8064;51.142;4.780;2022-09-21T03:33:04;9.30;99.90
15930;DHT22;8064;51.142;4.780;2022-09-21T03:35:31;9.30;99.90
15930;DHT22;8064;51.142;4.780;2022-09-21T03:37:59;9.30;99.90
15930;DHT22;8064;51.142;4.780;2022-09-21T03:40:25;9.20;99.90
15930;DHT22;8064;51.142;4.780;2022-09-21T03:42:52;9.20;99.90
15930;DHT22;8064;51.142;4.780;2022-09-21T03:45:19;9.20;99.90
15930;DHT22;8064;51.142;4.780;2022-09-21T03:47:46;9.20;99.90
15930;DHT22;8064;51.142;4.780;2022-09-21T03:50:13;9.20;99.90
15930;DHT22;8064;51.142;4.780;2022-09-21T03:52:39;9.20;99.90
15930;DHT22;8064;51.142;4.780;2022-09-21T03:55:07;9.20;99.90
15930;DHT22;8064;51.142;4.780;2022-09-21T03:57:34;9.20;99.90
15930;DHT22;8064;51.142;4.780;2022-09-21T04:00:01;9.20;99.90
15930;DHT22;8064;51.142;4.780;2022-09-21T04:02:28;9.20;99.90
15930;DHT22;8064;51.142;4.780;2022-09-21T04:04:54;9.20;99.90
15930;DHT22;8064;51.142;4.780;2022-09-21T04:07:20;9.20;99.90
15930;DHT22;8064;51.142;4.780;2022-09-21T04:09:46;9.20;99.90
15930;DHT22;8064;51.142;4.780;2022-09-21T04:12:11;9.20;99.90
15930;DHT22;8064;51.142;4.780;2022-09-21T04:14:37;9.20;99.90
15930;DHT22;8064;51.142;4.780;2022-09-21T04:17:03;9.20;99.90
15930;DHT22;8064;51.142;4.780;2022-09-21T04:19:29;9.20;99.90
15930;DHT22;8064;51.142;4.780;2022-09-21T04:21:55;9.20;99.90
15930;DHT22;8064;51.142;4.780;2022-09-21T04:24:22;9.20;99.90
15930;DHT22;8064;51.142;4.780;2022-09-21T04:26:48;9.20;99.90
15930;DHT22;8064;51.142;4.780;2022-09-21T04:29:14;9.20;99.90
15930;DHT22;8064;51.142;4.780;2022-09-21T04:31:41;9.10;99.90
15930;DHT22;8064;51.142;4.780;2022-09-21T04:34:08;9.20;99.90
15930;DHT22;8064;51.142;4.780;2022-09-21T04:36:36;9.20;99.90
15930;DHT22;8064;51.142;4.780;2022-09-21T04:39:03;9.10;99.90
15930;DHT22;8064;51.142;4.780;2022-09-21T04:41:30;9.10;99.90
15930;DHT22;8064;51.142;4.780;2022-09-21T04:43:55;9.10;99.90
15930;DHT22;8064;51.142;4.780;2022-09-21T04:46:21;9.10;99.90
15930;DHT22;8064;51.142;4.780;2022-09-21T04:48:47;9.10;99.90
15930;DHT22;8064;51.142;4.780;2022-09-21T04:51:15;9.10;99.90
15930;DHT22;8064;51.142;4.780;2022-09-21T04:53:42;9.10;99.90
15930;DHT22;8064;51.142;4.780;2022-09-21T04:56:10;9.10;99.90
15930;DHT22;8064;51.142;4.780;2022-09-21T04:58:37;9.00;99.90
15930;DHT22;8064;51.142;4.780;2022-09-21T05:01:03;9.00;99.90
15930;DHT22;8064;51.142;4.780;2022-09-21T05:03:30;9.10;99.90
15930;DHT22;8064;51.142;4.780;2022-09-21T05:05:56;9.00;99.90
15930;DHT22;8064;51.142;4.780;2022-09-21T05:08:24;9.10;99.90
15930;DHT22;8064;51.142;4.780;2022-09-21T05:11:11;9.00;99.90
15930;DHT22;8064;51.142;4.780;2022-09-21T05:13:46;9.00;99.90
15930;DHT22;8064;51.142;4.780;2022-09-21T05:16:13;9.00;99.90
15930;DHT22;8064;51.142;4.780;2022-09-21T05:18:39;9.00;99.90
15930;DHT22;8064;51.142;4.780;2022-09-21T05:21:05;9.00;99.90
15930;DHT22;8064;51.142;4.780;2022-09-21T05:23:32;8.90;99.90
15930;DHT22;8064;51.142;4.780;2022-09-21T05:25:58;8.90;99.90
15930;DHT22;8064;51.142;4.780;2022-09-21T05:28:25;8.90;99.90
15930;DHT22;8064;51.142;4.780;2022-09-21T05:31:03;8.90;99.90
15930;DHT22;8064;51.142;4.780;2022-09-21T05:33:31;8.90;99.90
15930;DHT22;8064;51.142;4.780;2022-09-21T05:38:35;9.00;99.90
15930;DHT22;8064;51.142;4.780;2022-09-21T05:41:01;9.00;99.90
15930;DHT22;8064;51.142;4.780;2022-09-21T05:43:27;9.00;99.90
15930;DHT22;8064;51.142;4.780;2022-09-21T05:46:08;9.00;99.90
15930;DHT22;8064;51.142;4.780;2022-09-21T05:48:39;9.10;99.90
15930;DHT22;8064;51.142;4.780;2022-09-21T05:51:26;9.00;99.90
15930;DHT22;8064;51.142;4.780;2022-09-21T05:59:58;9.10;99.90
15930;DHT22;8064;51.142;4.780;2022-09-21T06:02:41;9.10;99.90
15930;DHT22;8064;51.142;4.780;2022-09-21T06:05:12;9.20;99.90
15930;DHT22;8064;51.142;4.780;2022-09-21T06:07:38;9.30;99.90
15930;DHT22;8064;51.142;4.780;2022-09-21T06:10:04;9.30;99.90
15930;DHT22;8064;51.142;4.780;2022-09-21T06:12:30;9.40;99.90
15930;DHT22;8064;51.142;4.780;2022-09-21T06:14:55;9.40;99.90
15930;DHT22;8064;51.142;4.780;2022-09-21T06:17:21;9.50;99.90
15930;DHT22;8064;51.142;4.780;2022-09-21T06:19:47;9.60;99.90
15930;DHT22;8064;51.142;4.780;2022-09-21T06:22:13;9.70;99.90
15930;DHT22;8064;51.142;4.780;2022-09-21T06:24:38;9.80;99.90
15930;DHT22;8064;51.142;4.780;2022-09-21T06:27:04;9.90;99.90
15930;DHT22;8064;51.142;4.780;2022-09-21T06:29:30;10.10;99.90
15930;DHT22;8064;51.142;4.780;2022-09-21T06:31:56;10.20;99.90
15930;DHT22;8064;51.142;4.780;2022-09-21T06:34:21;10.30;99.90
15930;DHT22;8064;51.142;4.780;2022-09-21T06:36:47;10.50;99.90
15930;DHT22;8064;51.142;4.780;2022-09-21T06:39:13;10.60;99.90
15930;DHT22;8064;51.142;4.780;2022-09-21T06:41:39;10.70;99.90
15930;DHT22;8064;51.142;4.780;2022-09-21T06:44:04;10.80;99.90
15930;DHT22;8064;51.142;4.780;2022-09-21T06:46:30;10.90;99.90
15930;DHT22;8064;51.142;4.780;2022-09-21T06:48:56;11.00;99.90
15930;DHT22;8064;51.142;4.780;2022-09-21T06:51:21;11.10;99.90
15930;DHT22;8064;51.142;4.780;2022-09-21T06:53:52;11.20;99.90
15930;DHT22;8064;51.142;4.780;2022-09-21T06:56:18;11.40;99.90
15930;DHT22;8064;51.142;4.780;2022-09-21T06:58:44;11.50;99.90
15930;DHT22;8064;51.142;4.780;2022-09-21T07:01:12;11.70;99.90
15930;DHT22;8064;51.142;4.780;2022-09-21T07:03:40;11.80;99.90
15930;DHT22;8064;51.142;4.780;2022-09-21T07:06:06;12.00;99.90
15930;DHT22;8064;51.142;4.780;2022-09-21T07:08:33;12.20;99.90
15930;DHT22;8064;51.142;4.780;2022-09-21T07:11:00;12.40;99.90
15930;DHT22;8064;51.142;4.780;2022-09-21T07:13:28;12.50;99.90
15930;DHT22;8064;51.142;4.780;2022-09-21T07:15:54;12.70;99.90
15930;DHT22;8064;51.142;4.780;2022-09-21T07:18:20;12.80;99.90
15930;DHT22;8064;51.142;4.780;2022-09-21T07:20:46;13.00;99.90
15930;DHT22;8064;51.142;4.780;2022-09-21T07:23:17;13.20;99.90
15930;DHT22;8064;51.142;4.780;2022-09-21T07:25:45;13.40;99.90
15930;DHT22;8064;51.142;4.780;2022-09-21T07:28:13;13.50;99.90
15930;DHT22;8064;51.142;4.780;2022-09-21T07:30:39;13.70;99.90
15930;DHT22;8064;51.142;4.780;2022-09-21T07:33:06;13.90;99.90
15930;DHT22;8064;51.142;4.780;2022-09-21T07:35:33;14.00;99.90
15930;DHT22;8064;51.142;4.780;2022-09-21T07:37:59;14.20;99.90
15930;DHT22;8064;51.142;4.780;2022-09-21T07:40:26;14.30;99.90
15930;DHT22;8064;51.142;4.780;2022-09-21T07:42:56;14.50;99.90
15930;DHT22;8064;51.142;4.780;2022-09-21T07:45:21;14.60;99.90
15930;DHT22;8064;51.142;4.780;2022-09-21T07:47:47;14.80;99.90
15930;DHT22;8064;51.142;4.780;2022-09-21T07:50:13;14.90;99.90
15930;DHT22;8064;51.142;4.780;2022-09-21T07:52:39;15.10;99.90
15930;DHT22;8064;51.142;4.780;2022-09-21T07:55:05;15.20;99.90
15930;DHT22;8064;51.142;4.780;2022-09-21T07:57:30;15.40;99.90
15930;DHT22;8064;51.142;4.780;2022-09-21T08:00:14;15.50;99.90
15930;DHT22;8064;51.142;4.780;2022-09-21T08:02:40;15.70;99.90
15930;DHT22;8064;51.142;4.780;2022-09-21T08:05:06;15.80;99.90
15930;DHT22;8064;51.142;4.780;2022-09-21T08:07:32;16.00;99.90
15930;DHT22;8064;51.142;4.780;2022-09-21T08:09:59;16.10;99.90
15930;DHT22;8064;51.142;4.780;2022-09-21T08:12:25;16.20;99.90
15930;DHT22;8064;51.142;4.780;2022-09-21T08:14:50;16.40;99.90
15930;DHT22;8064;51.142;4.780;2022-09-21T08:17:16;16.60;99.90
15930;DHT22;8064;51.142;4.780;2022-09-21T08:19:42;16.70;99.90
15930;DHT22;8064;51.142;4.780;2022-09-21T08:22:07;16.90;99.90
15930;DHT22;8064;51.142;4.780;2022-09-21T08:24:33;17.00;99.90
15930;DHT22;8064;51.142;4.780;2022-09-21T08:27:00;17.10;99.90
15930;DHT22;8064;51.142;4.780;2022-09-21T08:29:26;17.20;99.90
15930;DHT22;8064;51.142;4.780;2022-09-21T08:31:52;17.40;99.90
15930;DHT22;8064;51.142;4.780;2022-09-21T08:34:18;17.50;99.90
15930;DHT22;8064;51.142;4.780;2022-09-21T08:36:44;17.60;99.90
15930;DHT22;8064;51.142;4.780;2022-09-21T08:39:11;17.70;99.70
15930;DHT22;8064;51.142;4.780;2022-09-21T08:44:59;18.00;99.40
15930;DHT22;8064;51.142;4.780;2022-09-21T08:47:55;18.10;98.70
15930;DHT22;8064;51.142;4.780;2022-09-21T08:53:09;18.30;98.60
15930;DHT22;8064;51.142;4.780;2022-09-21T08:55:36;18.40;98.30
15930;DHT22;8064;51.142;4.780;2022-09-21T08:58:02;18.50;98.20
15930;DHT22;8064;51.142;4.780;2022-09-21T09:00:33;18.60;98.20
15930;DHT22;8064;51.142;4.780;2022-09-21T09:05:57;18.90;97.80
15930;DHT22;8064;51.142;4.780;2022-09-21T09:08:45;19.00;97.40
15930;DHT22;8064;51.142;4.780;2022-09-21T09:11:41;19.20;97.20
15930;DHT22;8064;51.142;4.780;2022-09-21T09:14:31;19.40;96.80
15930;DHT22;8064;51.142;4.780;2022-09-21T09:17:25;19.50;96.70
15930;DHT22;8064;51.142;4.780;2022-09-21T09:19:54;19.70;96.60
15930;DHT22;8064;51.142;4.780;2022-09-21T09:22:35;19.80;96.30
15930;DHT22;8064;51.142;4.780;2022-09-21T09:25:05;19.90;95.80
15930;DHT22;8064;51.142;4.780;2022-09-21T09:27:37;20.10;95.70
15930;DHT22;8064;51.142;4.780;2022-09-21T09:36:02;20.50;94.50
15930;DHT22;8064;51.142;4.780;2022-09-21T09:38:42;20.80;93.60
15930;DHT22;8064;51.142;4.780;2022-09-21T09:44:07;21.90;92.20
15930;DHT22;8064;51.142;4.780;2022-09-21T09:46:55;22.40;91.40
15930;DHT22;8064;51.142;4.780;2022-09-21T09:49:51;22.70;90.70
15930;DHT22;8064;51.142;4.780;2022-09-21T09:52:25;22.80;90.20
15930;DHT22;8064;51.142;4.780;2022-09-21T09:54:52;22.80;90.20
15930;DHT22;8064;51.142;4.780;2022-09-21T09:57:27;22.70;89.90
15930;DHT22;8064;51.142;4.780;2022-09-21T09:59:57;22.70;89.60
15930;DHT22;8064;51.142;4.780;2022-09-21T10:02:26;22.60;89.50
15930;DHT22;8064;51.142;4.780;2022-09-21T10:04:57;22.60;89.20
15930;DHT22;8064;51.142;4.780;2022-09-21T10:07:44;22.60;89.60
15930;DHT22;8064;51.142;4.780;2022-09-21T10:15:48;22.80;86.70
15930;DHT22;8064;51.142;4.780;2022-09-21T10:18:33;23.00;87.00
15930;DHT22;8064;51.142;4.780;2022-09-21T10:21:04;23.20;86.60
15930;DHT22;8064;51.142;4.780;2022-09-21T10:23:31;23.30;85.30
15930;DHT22;8064;51.142;4.780;2022-09-21T10:26:11;23.40;84.90
15930;DHT22;8064;51.142;4.780;2022-09-21T10:28:54;23.50;82.90
15930;DHT22;8064;51.142;4.780;2022-09-21T10:31:27;23.50;82.80
15930;DHT22;8064;51.142;4.780;2022-09-21T10:34:11;23.50;82.90
15930;DHT22;8064;51.142;4.780;2022-09-21T10:36:37;23.30;81.90
15930;DHT22;8064;51.142;4.780;2022-09-21T10:39:18;23.00;82.40
15930;DHT22;8064;51.142;4.780;2022-09-21T10:42:11;22.60;81.80
15930;DHT22;8064;51.142;4.780;2022-09-21T10:44:38;22.20;82.00
15930;DHT22;8064;51.142;4.780;2022-09-21T10:49:49;21.60;83.30
15930;DHT22;8064;51.142;4.780;2022-09-21T10:52:16;21.30;83.80
15930;DHT22;8064;51.142;4.780;2022-09-21T10:54:44;21.00;83.90
15930;DHT22;8064;51.142;4.780;2022-09-21T10:57:15;20.80;84.20
15930;DHT22;8064;51.142;4.780;2022-09-21T10:59:42;20.60;84.00
15930;DHT22;8064;51.142;4.780;2022-09-21T11:02:33;20.50;84.60
15930;DHT22;8064;51.142;4.780;2022-09-21T11:05:22;20.30;83.40
15930;DHT22;8064;51.142;4.780;2022-09-21T11:08:14;20.30;83.30
15930;DHT22;8064;51.142;4.780;2022-09-21T11:13:38;20.20;84.40
15930;DHT22;8064;51.142;4.780;2022-09-21T11:16:28;20.10;84.20
15930;DHT22;8064;51.142;4.780;2022-09-21T11:21:43;19.90;84.40
15930;DHT22;8064;51.142;4.780;2022-09-21T11:27:32;19.60;84.40
15930;DHT22;8064;51.142;4.780;2022-09-21T11:30:09;19.60;84.30
15930;DHT22;8064;51.142;4.780;2022-09-21T11:35:44;19.40;83.30
15930;DHT22;8064;51.142;4.780;2022-09-21T11:38:38;19.40;83.30
15930;DHT22;8064;51.142;4.780;2022-09-21T11:41:21;19.40;83.40
15930;DHT22;8064;51.142;4.780;2022-09-21T11:44:20;19.40;83.50
15930;DHT22;8064;51.142;4.780;2022-09-21T11:55:35;19.80;81.70
15930;DHT22;8064;51.142;4.780;2022-09-21T12:18:17;20.20;80.20
15930;DHT22;8064;51.142;4.780;2022-09-21T12:23:22;20.20;80.70
15930;DHT22;8064;51.142;4.780;2022-09-21T12:25:55;20.20;80.60
15930;DHT22;8064;51.142;4.780;2022-09-21T12:29:01;20.20;80.90
15930;DHT22;8064;51.142;4.780;2022-09-21T12:31:56;20.20;80.20
15930;DHT22;8064;51.142;4.780;2022-09-21T12:34:34;20.10;80.50
15930;DHT22;8064;51.142;4.780;2022-09-21T12:37:07;20.10;80.90
15930;DHT22;8064;51.142;4.780;2022-09-21T12:39:45;20.00;80.80
15930;DHT22;8064;51.142;4.780;2022-09-21T12:42:44;19.90;80.50
15930;DHT22;8064;51.142;4.780;2022-09-21T12:45:21;19.90;80.70
15930;DHT22;8064;51.142;4.780;2022-09-21T12:50:39;19.70;80.80
15930;DHT22;8064;51.142;4.780;2022-09-21T12:53:14;19.70;81.10
15930;DHT22;8064;51.142;4.780;2022-09-21T12:56:11;19.60;80.90
15930;DHT22;8064;51.142;4.780;2022-09-21T13:02:02;19.50;80.70
15930;DHT22;8064;51.142;4.780;2022-09-21T13:08:22;19.30;81.10
15930;DHT22;8064;51.142;4.780;2022-09-21T13:11:02;19.30;81.50
15930;DHT22;8064;51.142;4.780;2022-09-21T13:13:36;19.30;81.50
15930;DHT22;8064;51.142;4.780;2022-09-21T13:16:04;19.20;81.40
15930;DHT22;8064;51.142;4.780;2022-09-21T13:18:39;19.20;81.50
15930;DHT22;8064;51.142;4.780;2022-09-21T13:21:17;19.10;81.30
15930;DHT22;8064;51.142;4.780;2022-09-21T13:23:51;19.10;81.40
15930;DHT22;8064;51.142;4.780;2022-09-21T13:26:29;19.00;81.50
15930;DHT22;8064;51.142;4.780;2022-09-21T13:31:41;18.80;82.00
15930;DHT22;8064;51.142;4.780;2022-09-21T13:47:45;18.70;81.00
15930;DHT22;8064;51.142;4.780;2022-09-21T13:53:05;18.80;81.80
15930;DHT22;8064;51.142;4.780;2022-09-21T13:55:36;18.80;81.60
15930;DHT22;8064;51.142;4.780;2022-09-21T13:58:28;18.80;80.80
15930;DHT22;8064;51.142;4.780;2022-09-21T14:00:59;18.90;80.20
15930;DHT22;8064;51.142;4.780;2022-09-21T14:03:27;18.90;80.30
15930;DHT22;8064;51.142;4.780;2022-09-21T14:08:31;19.00;80.00
15930;DHT22;8064;51.142;4.780;2022-09-21T14:11:04;19.00;80.20
15930;DHT22;8064;51.142;4.780;2022-09-21T14:13:42;19.10;80.20
15930;DHT22;8064;51.142;4.780;2022-09-21T14:18:52;19.20;79.20
15930;DHT22;8064;51.142;4.780;2022-09-21T14:21:19;19.30;80.10
15930;DHT22;8064;51.142;4.780;2022-09-21T14:24:18;19.30;80.00
15930;DHT22;8064;51.142;4.780;2022-09-21T14:26:50;19.40;79.50
15930;DHT22;8064;51.142;4.780;2022-09-21T14:31:47;19.40;79.50
15930;DHT22;8064;51.142;4.780;2022-09-21T14:34:20;19.40;79.70
15930;DHT22;8064;51.142;4.780;2022-09-21T14:36:50;19.30;79.50
15930;DHT22;8064;51.142;4.780;2022-09-21T14:39:21;19.30;79.40
15930;DHT22;8064;51.142;4.780;2022-09-21T14:41:54;19.20;79.40
15930;DHT22;8064;51.142;4.780;2022-09-21T14:44:26;19.10;79.60
15930;DHT22;8064;51.142;4.780;2022-09-21T14:50:08;19.00;80.00
15930;DHT22;8064;51.142;4.780;2022-09-21T14:55:26;18.80;80.00
15930;DHT22;8064;51.142;4.780;2022-09-21T15:00:49;18.70;80.90
15930;DHT22;8064;51.142;4.780;2022-09-21T15:18:00;18.40;81.50
15930;DHT22;8064;51.142;4.780;2022-09-21T15:20:28;18.40;82.70
15930;DHT22;8064;51.142;4.780;2022-09-21T15:22:55;18.30;83.40
15930;DHT22;8064;51.142;4.780;2022-09-21T15:25:22;18.30;84.00
15930;DHT22;8064;51.142;4.780;2022-09-21T15:27:49;18.20;84.30
15930;DHT22;8064;51.142;4.780;2022-09-21T15:30:24;18.10;84.40
15930;DHT22;8064;51.142;4.780;2022-09-21T15:33:01;18.10;85.40
15930;DHT22;8064;51.142;4.780;2022-09-21T15:35:29;18.00;86.80
15930;DHT22;8064;51.142;4.780;2022-09-21T15:37:57;18.00;86.30
15930;DHT22;8064;51.142;4.780;2022-09-21T15:40:32;17.90;86.70
15930;DHT22;8064;51.142;4.780;2022-09-21T15:45:57;17.90;88.20
15930;DHT22;8064;51.142;4.780;2022-09-21T15:48:28;17.90;89.30
15930;DHT22;8064;51.142;4.780;2022-09-21T15:51:09;17.90;89.10
15930;DHT22;8064;51.142;4.780;2022-09-21T15:53:58;17.90;90.00
15930;DHT22;8064;51.142;4.780;2022-09-21T15:56:29;17.90;90.10
15930;DHT22;8064;51.142;4.780;2022-09-21T15:59:00;18.00;89.50
15930;DHT22;8064;51.142;4.780;2022-09-21T16:01:38;18.00;88.90
15930;DHT22;8064;51.142;4.780;2022-09-21T16:04:10;18.10;88.80
15930;DHT22;8064;51.142;4.780;2022-09-21T16:06:38;18.10;88.10
15930;DHT22;8064;51.142;4.780;2022-09-21T16:11:51;18.20;85.70
15930;DHT22;8064;51.142;4.780;2022-09-21T16:14:19;18.20;86.00
15930;DHT22;8064;51.142;4.780;2022-09-21T16:20:03;18.20;86.30
15930;DHT22;8064;51.142;4.780;2022-09-21T16:22:41;18.20;86.90
15930;DHT22;8064;51.142;4.780;2022-09-21T16:25:26;18.10;86.70
15930;DHT22;8064;51.142;4.780;2022-09-21T16:27:56;18.10;87.20
15930;DHT22;8064;51.142;4.780;2022-09-21T16:30:57;18.10;87.30
15930;DHT22;8064;51.142;4.780;2022-09-21T16:33:39;18.00;86.60
15930;DHT22;8064;51.142;4.780;2022-09-21T16:38:47;18.00;87.50
15930;DHT22;8064;51.142;4.780;2022-09-21T16:41:14;17.90;87.00
15930;DHT22;8064;51.142;4.780;2022-09-21T16:43:41;17.90;86.50
15930;DHT22;8064;51.142;4.780;2022-09-21T16:46:11;17.90;86.10
15930;DHT22;8064;51.142;4.780;2022-09-21T16:48:37;17.90;86.00
15930;DHT22;8064;51.142;4.780;2022-09-21T16:51:02;17.90;86.40
15930;DHT22;8064;51.142;4.780;2022-09-21T16:53:30;17.80;86.30
15930;DHT22;8064;51.142;4.780;2022-09-21T16:55:55;17.80;86.50
15930;DHT22;8064;51.142;4.780;2022-09-21T16:58:21;17.70;86.60
15930;DHT22;8064;51.142;4.780;2022-09-21T17:00:52;17.70;87.00
15930;DHT22;8064;51.142;4.780;2022-09-21T17:03:19;17.60;88.10
15930;DHT22;8064;51.142;4.780;2022-09-21T17:05:45;17.50;88.90
15930;DHT22;8064;51.142;4.780;2022-09-21T17:08:11;17.50;89.70
15930;DHT22;8064;51.142;4.780;2022-09-21T17:10:43;17.40;90.20
15930;DHT22;8064;51.142;4.780;2022-09-21T17:13:10;17.30;90.50
15930;DHT22;8064;51.142;4.780;2022-09-21T17:15:41;17.20;90.80
15930;DHT22;8064;51.142;4.780;2022-09-21T17:18:10;17.10;91.10
15930;DHT22;8064;51.142;4.780;2022-09-21T17:20:42;17.00;91.40
15930;DHT22;8064;51.142;4.780;2022-09-21T17:23:09;16.90;91.70
15930;DHT22;8064;51.142;4.780;2022-09-21T17:25:35;16.80;91.90
15930;DHT22;8064;51.142;4.780;2022-09-21T17:28:03;16.70;92.00
15930;DHT22;8064;51.142;4.780;2022-09-21T17:30:35;16.60;92.10
15930;DHT22;8064;51.142;4.780;2022-09-21T17:33:02;16.50;92.20
15930;DHT22;8064;51.142;4.780;2022-09-21T17:35:36;16.40;92.40
15930;DHT22;8064;51.142;4.780;2022-09-21T17:38:04;16.30;92.70
15930;DHT22;8064;51.142;4.780;2022-09-21T17:40:30;16.20;92.90
15930;DHT22;8064;51.142;4.780;2022-09-21T17:43:29;16.10;93.10
15930;DHT22;8064;51.142;4.780;2022-09-21T17:46:05;16.10;93.40
15930;DHT22;8064;51.142;4.780;2022-09-21T17:48:36;15.90;93.50
15930;DHT22;8064;51.142;4.780;2022-09-21T17:51:02;15.90;93.70
15930;DHT22;8064;51.142;4.780;2022-09-21T17:53:28;15.80;93.80
15930;DHT22;8064;51.142;4.780;2022-09-21T17:56:45;15.70;94.00
15930;DHT22;8064;51.142;4.780;2022-09-21T17:59:30;15.60;94.10
15930;DHT22;8064;51.142;4.780;2022-09-21T18:01:56;15.50;94.10
15930;DHT22;8064;51.142;4.780;2022-09-21T18:04:28;15.50;94.10
15930;DHT22;8064;51.142;4.780;2022-09-21T18:06:57;15.40;94.10
15930;DHT22;8064;51.142;4.780;2022-09-21T18:09:23;15.30;94.00
15930;DHT22;8064;51.142;4.780;2022-09-21T18:14:38;15.20;94.10
15930;DHT22;8064;51.142;4.780;2022-09-21T18:23:36;15.00;94.40
15930;DHT22;8064;51.142;4.780;2022-09-21T18:26:06;14.90;94.60
15930;DHT22;8064;51.142;4.780;2022-09-21T18:28:43;14.80;94.50
15930;DHT22;8064;51.142;4.780;2022-09-21T18:42:39;14.50;94.70
15930;DHT22;8064;51.142;4.780;2022-09-21T18:45:41;14.40;94.80
15930;DHT22;8064;51.142;4.780;2022-09-21T18:53:45;14.20;95.00
15930;DHT22;8064;51.142;4.780;2022-09-21T18:56:12;14.10;95.20
15930;DHT22;8064;51.142;4.780;2022-09-21T18:58:39;14.10;95.30
15930;DHT22;8064;51.142;4.780;2022-09-21T19:01:11;14.10;95.50
15930;DHT22;8064;51.142;4.780;2022-09-21T19:03:38;14.00;95.60
15930;DHT22;8064;51.142;4.780;2022-09-21T19:28:03;13.70;96.30
15930;DHT22;8064;51.142;4.780;2022-09-21T19:30:36;13.60;96.40
15930;DHT22;8064;51.142;4.780;2022-09-21T19:33:16;13.50;96.40
15930;DHT22;8064;51.142;4.780;2022-09-21T19:35:45;13.50;96.60
15930;DHT22;8064;51.142;4.780;2022-09-21T19:38:11;13.40;96.60
15930;DHT22;8064;51.142;4.780;2022-09-21T19:40:37;13.40;96.80
15930;DHT22;8064;51.142;4.780;2022-09-21T19:43:23;13.30;96.80
15930;DHT22;8064;51.142;4.780;2022-09-21T19:46:27;13.30;97.00
15930;DHT22;8064;51.142;4.780;2022-09-21T19:49:15;13.30;97.10
15930;DHT22;8064;51.142;4.780;2022-09-21T19:51:51;13.20;97.10
15930;DHT22;8064;51.142;4.780;2022-09-21T19:54:22;13.20;97.10
15930;DHT22;8064;51.142;4.780;2022-09-21T19:57:20;13.20;97.10
15930;DHT22;8064;51.142;4.780;2022-09-21T20:00:12;13.10;97.10
15930;DHT22;8064;51.142;4.780;2022-09-21T20:05:30;13.00;97.10
15930;DHT22;8064;51.142;4.780;2022-09-21T20:08:04;12.90;97.10
15930;DHT22;8064;51.142;4.780;2022-09-21T20:10:53;12.90;97.30